Time;durP1;ratioP1;P1;durP2;ratioP2;P2;SDS_P1;SDS_P2;PMS_P1;PMS_P2;Temp;Humidity;BMP_temperature;BMP_pressure;BME280_temperature;BME280_humidity;BME280_pressure;Samples;Min_cycle;Max_cycle;Signal;HPM_P1;HPM_P2
2023/03/09 00:02:23;;;;;;;;;;;5.00;99.90;;;;;;5028121;28;20368;-62
2023/03/09 00:04:49;;;;;;;;;;;4.80;99.90;;;;;;5029619;28;19920;-62
2023/03/09 00:07:14;;;;;;;;;;;4.80;99.90;;;;;;5029476;28;19913;-62
2023/03/09 00:09:40;;;;;;;;;;;5.00;99.90;;;;;;5034306;28;19921;-62
2023/03/09 00:12:05;;;;;;;;;;;4.90;99.90;;;;;;5029086;28;19913;-62
2023/03/09 00:14:31;;;;;;;;;;;5.00;99.90;;;;;;5031019;28;19920;-61
2023/03/09 00:16:56;;;;;;;;;;;4.90;99.90;;;;;;5033453;28;20265;-63
2023/03/09 00:19:26;;;;;;;;;;;4.80;99.90;;;;;;5031956;28;19975;-61
2023/03/09 00:21:55;;;;;;;;;;;4.90;99.90;;;;;;5037247;28;19913;-63
2023/03/09 00:24:28;;;;;;;;;;;4.80;99.90;;;;;;5040488;28;19921;-63
2023/03/09 00:26:57;;;;;;;;;;;4.70;99.90;;;;;;5064584;28;19971;-62
2023/03/09 00:29:24;;;;;;;;;;;5.00;99.90;;;;;;5031717;28;19917;-62
2023/03/09 00:31:50;;;;;;;;;;;4.90;99.90;;;;;;5033751;28;19917;-62
2023/03/09 00:34:16;;;;;;;;;;;5.00;99.90;;;;;;5033425;28;20011;-62
2023/03/09 00:36:41;;;;;;;;;;;4.80;99.90;;;;;;5031708;28;19921;-61
2023/03/09 00:39:07;;;;;;;;;;;4.70;99.90;;;;;;5033350;28;19920;-61
2023/03/09 00:41:33;;;;;;;;;;;4.70;99.90;;;;;;5031354;28;19909;-62
2023/03/09 00:43:59;;;;;;;;;;;5.00;99.90;;;;;;5033105;28;19979;-62
2023/03/09 00:46:25;;;;;;;;;;;5.00;99.90;;;;;;5031121;28;20388;-62
2023/03/09 00:48:50;;;;;;;;;;;4.80;99.90;;;;;;5033303;28;19913;-62
2023/03/09 00:51:16;;;;;;;;;;;4.80;99.90;;;;;;5032902;28;19913;-62
2023/03/09 00:53:42;;;;;;;;;;;4.90;99.90;;;;;;5031014;28;19913;-63
2023/03/09 00:56:09;;;;;;;;;;;4.90;99.90;;;;;;5032072;28;20426;-62
2023/03/09 00:58:34;;;;;;;;;;;4.70;99.90;;;;;;5031501;28;19940;-62
2023/03/09 01:01:00;;;;;;;;;;;4.90;99.90;;;;;;5035583;28;19913;-62
2023/03/09 01:03:26;;;;;;;;;;;4.70;99.90;;;;;;5029960;28;19917;-62
2023/03/09 01:05:51;;;;;;;;;;;4.80;99.90;;;;;;5032638;28;19923;-62
2023/03/09 01:08:17;;;;;;;;;;;4.80;99.90;;;;;;5030694;28;19913;-62
2023/03/09 01:10:43;;;;;;;;;;;4.80;99.90;;;;;;5037066;28;19913;-62
2023/03/09 01:13:12;;;;;;;;;;;4.90;99.90;;;;;;5031554;28;19913;-63
2023/03/09 01:15:37;;;;;;;;;;;5.00;99.90;;;;;;5024155;28;19983;-63
2023/03/09 01:18:03;;;;;;;;;;;4.70;99.90;;;;;;5032788;28;20376;-63
2023/03/09 01:20:29;;;;;;;;;;;4.90;99.90;;;;;;5030868;28;19936;-63
2023/03/09 01:22:54;;;;;;;;;;;4.80;99.90;;;;;;5032635;28;19913;-63
2023/03/09 01:25:20;;;;;;;;;;;5.00;99.90;;;;;;5029165;28;20284;-59
2023/03/09 01:27:45;;;;;;;;;;;4.90;99.90;;;;;;5031885;28;19943;-62
2023/03/09 01:30:11;;;;;;;;;;;4.70;99.90;;;;;;5032609;28;19920;-62
2023/03/09 01:32:37;;;;;;;;;;;4.80;99.90;;;;;;5029950;28;19921;-62
2023/03/09 01:35:03;;;;;;;;;;;4.90;99.90;;;;;;5036875;28;19919;-62
2023/03/09 01:37:29;;;;;;;;;;;4.80;99.90;;;;;;5030381;28;19915;-63
2023/03/09 01:39:54;;;;;;;;;;;4.80;99.90;;;;;;5032137;28;20305;-62
2023/03/09 01:42:20;;;;;;;;;;;4.70;99.90;;;;;;5028689;28;20055;-63
2023/03/09 01:45:05;;;;;;;;;;;4.80;99.90;;;;;;5032014;28;19921;-62
2023/03/09 01:47:31;;;;;;;;;;;5.00;99.90;;;;;;5029128;28;19968;-62
2023/03/09 01:49:57;;;;;;;;;;;4.80;99.90;;;;;;5031732;28;19951;-62
2023/03/09 01:52:27;;;;;;;;;;;4.90;99.90;;;;;;5029579;28;19999;-62
2023/03/09 01:54:55;;;;;;;;;;;4.80;99.90;;;;;;5032025;28;19917;-61
2023/03/09 01:57:29;;;;;;;;;;;5.00;99.90;;;;;;5029249;28;19920;-61
2023/03/09 01:59:56;;;;;;;;;;;4.80;99.90;;;;;;5031613;28;20047;-61
2023/03/09 02:02:24;;;;;;;;;;;4.80;99.90;;;;;;5029462;28;19921;-61
2023/03/09 02:04:54;;;;;;;;;;;4.90;99.90;;;;;;5031848;28;19927;-61
2023/03/09 02:07:22;;;;;;;;;;;4.90;99.90;;;;;;5030592;28;19920;-62
2023/03/09 02:09:57;;;;;;;;;;;4.90;99.90;;;;;;5035694;28;20395;-64
2023/03/09 02:12:23;;;;;;;;;;;4.80;99.90;;;;;;5029269;28;19952;-62
2023/03/09 02:14:48;;;;;;;;;;;4.80;99.90;;;;;;5031284;28;20344;-62
2023/03/09 02:17:15;;;;;;;;;;;5.00;99.90;;;;;;5031255;28;19917;-64
2023/03/09 02:19:45;;;;;;;;;;;5.00;99.90;;;;;;5029705;28;20292;-62
2023/03/09 02:22:10;;;;;;;;;;;4.90;99.90;;;;;;5031416;28;20003;-61
2023/03/09 02:24:39;;;;;;;;;;;4.70;99.90;;;;;;5029384;28;20011;-62
2023/03/09 02:27:07;;;;;;;;;;;5.00;99.90;;;;;;5031059;28;19914;-62
2023/03/09 02:29:33;;;;;;;;;;;5.00;99.90;;;;;;5029162;28;19913;-62
2023/03/09 02:31:58;;;;;;;;;;;4.80;99.90;;;;;;5031087;28;19999;-61
2023/03/09 02:34:24;;;;;;;;;;;4.90;99.90;;;;;;5029128;28;19928;-62
2023/03/09 02:36:50;;;;;;;;;;;5.00;99.90;;;;;;5030625;28;19924;-62
2023/03/09 02:39:23;;;;;;;;;;;4.80;99.90;;;;;;5031086;28;20012;-62
2023/03/09 02:41:49;;;;;;;;;;;4.80;99.90;;;;;;5030431;28;20280;-61
2023/03/09 02:44:14;;;;;;;;;;;5.00;99.90;;;;;;5028378;28;19925;-62
2023/03/09 02:46:40;;;;;;;;;;;5.00;99.90;;;;;;5028990;28;19936;-61
2023/03/09 02:49:05;;;;;;;;;;;4.90;99.90;;;;;;5030825;28;19913;-62
2023/03/09 02:51:31;;;;;;;;;;;4.90;99.90;;;;;;5028942;28;20031;-61
2023/03/09 02:53:57;;;;;;;;;;;4.80;99.90;;;;;;5030857;28;20284;-61
2023/03/09 02:56:22;;;;;;;;;;;4.90;99.90;;;;;;5028315;28;19913;-61
2023/03/09 02:58:48;;;;;;;;;;;4.80;99.90;;;;;;5030819;28;19913;-62
2023/03/09 03:01:13;;;;;;;;;;;4.90;99.90;;;;;;5030378;28;19917;-62
2023/03/09 03:03:39;;;;;;;;;;;5.00;99.90;;;;;;5028951;28;20457;-62
2023/03/09 03:06:05;;;;;;;;;;;5.00;99.90;;;;;;5030427;28;20347;-62
2023/03/09 03:08:32;;;;;;;;;;;4.80;99.90;;;;;;5028299;28;19913;-62
2023/03/09 03:10:57;;;;;;;;;;;5.00;99.90;;;;;;5021136;28;19968;-61
2023/03/09 03:13:23;;;;;;;;;;;4.80;99.90;;;;;;5028749;28;19948;-62
2023/03/09 03:15:48;;;;;;;;;;;4.90;99.90;;;;;;5030593;28;20012;-62
2023/03/09 03:18:14;;;;;;;;;;;4.80;99.90;;;;;;5030212;28;19940;-61
2023/03/09 03:20:40;;;;;;;;;;;4.90;99.90;;;;;;5028320;28;19924;-62
2023/03/09 03:23:05;;;;;;;;;;;5.00;99.90;;;;;;5023822;28;20376;-61
2023/03/09 03:25:31;;;;;;;;;;;4.80;99.90;;;;;;5026824;28;19913;-62
2023/03/09 03:27:57;;;;;;;;;;;5.00;99.90;;;;;;5025174;28;19913;-62
2023/03/09 03:30:23;;;;;;;;;;;4.90;99.90;;;;;;5020429;28;19913;-61
2023/03/09 03:32:52;;;;;;;;;;;4.80;99.90;;;;;;5030152;28;19920;-62
2023/03/09 03:35:18;;;;;;;;;;;4.80;99.90;;;;;;5029895;28;19960;-62
2023/03/09 03:37:43;;;;;;;;;;;4.90;99.90;;;;;;5032490;28;20381;-62
2023/03/09 03:40:09;;;;;;;;;;;5.00;99.90;;;;;;5029555;28;20274;-62
2023/03/09 03:42:35;;;;;;;;;;;5.00;99.90;;;;;;5027030;28;19932;-62
2023/03/09 03:45:01;;;;;;;;;;;5.00;99.90;;;;;;5029358;28;19921;-62
2023/03/09 03:47:26;;;;;;;;;;;5.00;99.90;;;;;;5027190;28;20015;-61
2023/03/09 03:49:52;;;;;;;;;;;5.00;99.90;;;;;;5029319;28;19913;-63
2023/03/09 03:52:17;;;;;;;;;;;4.90;99.90;;;;;;5029902;28;19971;-62
2023/03/09 03:54:43;;;;;;;;;;;5.00;99.90;;;;;;5027636;28;19913;-62
2023/03/09 03:57:08;;;;;;;;;;;4.90;99.90;;;;;;5029297;28;19920;-62
2023/03/09 03:59:34;;;;;;;;;;;5.00;99.90;;;;;;5027944;28;19968;-62
2023/03/09 04:02:00;;;;;;;;;;;5.00;99.90;;;;;;5029663;28;19919;-62
2023/03/09 04:04:25;;;;;;;;;;;5.00;99.90;;;;;;5027402;28;19925;-62
2023/03/09 04:06:51;;;;;;;;;;;4.80;99.90;;;;;;5029784;28;20343;-62
2023/03/09 04:09:16;;;;;;;;;;;4.80;99.90;;;;;;5025776;28;19914;-61
2023/03/09 04:11:42;;;;;;;;;;;4.80;99.90;;;;;;5025700;28;19917;-63
2023/03/09 04:14:08;;;;;;;;;;;4.80;99.90;;;;;;5029460;28;19924;-61
2023/03/09 04:16:34;;;;;;;;;;;4.90;99.90;;;;;;5027968;28;19967;-63
2023/03/09 04:18:59;;;;;;;;;;;4.80;99.90;;;;;;5029580;28;20280;-63
2023/03/09 04:21:25;;;;;;;;;;;4.80;99.90;;;;;;5028102;28;19917;-62
2023/03/09 04:23:50;;;;;;;;;;;5.00;99.90;;;;;;5029691;28;19925;-62
2023/03/09 04:26:16;;;;;;;;;;;4.90;99.90;;;;;;5029400;28;19920;-62
2023/03/09 04:28:42;;;;;;;;;;;4.90;99.90;;;;;;5028062;28;20285;-62
2023/03/09 04:31:07;;;;;;;;;;;5.10;99.90;;;;;;5029513;28;20264;-62
2023/03/09 04:33:33;;;;;;;;;;;4.90;99.90;;;;;;5027395;28;19913;-61
2023/03/09 04:35:58;;;;;;;;;;;5.10;99.90;;;;;;5028543;28;20020;-62
2023/03/09 04:38:24;;;;;;;;;;;4.90;99.90;;;;;;5030560;28;19948;-62
2023/03/09 04:40:50;;;;;;;;;;;4.90;99.90;;;;;;5027518;28;19917;-62
2023/03/09 04:43:15;;;;;;;;;;;5.10;99.90;;;;;;5031537;28;20444;-64
2023/03/09 04:45:41;;;;;;;;;;;4.90;99.90;;;;;;5031081;28;19921;-61
2023/03/09 04:48:06;;;;;;;;;;;5.00;99.90;;;;;;5030302;28;19929;-61
2023/03/09 04:50:32;;;;;;;;;;;5.10;99.90;;;;;;5027282;28;19916;-62
2023/03/09 04:52:57;;;;;;;;;;;4.90;99.90;;;;;;5034574;28;19913;-62
2023/03/09 04:55:23;;;;;;;;;;;4.80;99.90;;;;;;5027817;28;20279;-62
2023/03/09 04:57:49;;;;;;;;;;;4.90;99.90;;;;;;5028419;28;19921;-61
2023/03/09 05:00:15;;;;;;;;;;;4.90;99.90;;;;;;5034603;28;19916;-61
2023/03/09 05:02:41;;;;;;;;;;;5.00;99.90;;;;;;5030403;28;19921;-61
2023/03/09 05:05:08;;;;;;;;;;;4.80;99.90;;;;;;5033275;28;20276;-62
2023/03/09 05:07:34;;;;;;;;;;;5.00;99.90;;;;;;5033047;28;19913;-61
2023/03/09 05:09:59;;;;;;;;;;;5.00;99.90;;;;;;5039517;28;20288;-62
2023/03/09 05:12:31;;;;;;;;;;;4.90;99.90;;;;;;5031142;28;19913;-61
2023/03/09 05:14:59;;;;;;;;;;;5.00;99.90;;;;;;5032980;28;19917;-61
2023/03/09 05:17:25;;;;;;;;;;;4.90;99.90;;;;;;5033876;28;19913;-62
2023/03/09 05:19:51;;;;;;;;;;;5.10;99.90;;;;;;5032049;28;19920;-61
2023/03/09 05:22:17;;;;;;;;;;;5.10;99.90;;;;;;5039280;28;19913;-61
2023/03/09 05:24:42;;;;;;;;;;;5.10;99.90;;;;;;5030385;28;19928;-63
2023/03/09 05:27:08;;;;;;;;;;;5.10;99.90;;;;;;5035946;28;19917;-62
2023/03/09 05:29:34;;;;;;;;;;;4.90;99.90;;;;;;5031318;28;20037;-62
2023/03/09 05:31:59;;;;;;;;;;;5.00;99.90;;;;;;5038796;28;19959;-62
2023/03/09 05:34:25;;;;;;;;;;;5.00;99.90;;;;;;5030174;28;19913;-62
2023/03/09 05:36:51;;;;;;;;;;;5.20;99.90;;;;;;5037647;28;19913;-64
2023/03/09 05:39:16;;;;;;;;;;;5.10;99.90;;;;;;5032185;28;19914;-62
2023/03/09 05:41:42;;;;;;;;;;;5.10;99.90;;;;;;5033996;28;20261;-62
2023/03/09 05:44:08;;;;;;;;;;;5.00;99.90;;;;;;5031959;28;19966;-62
2023/03/09 05:46:33;;;;;;;;;;;5.00;99.90;;;;;;5041434;28;19913;-62
2023/03/09 05:48:59;;;;;;;;;;;5.20;99.90;;;;;;5035684;28;19913;-62
2023/03/09 05:51:25;;;;;;;;;;;5.10;99.90;;;;;;5034486;28;19920;-62
2023/03/09 05:53:50;;;;;;;;;;;5.20;99.90;;;;;;5031849;28;19921;-61
2023/03/09 05:56:16;;;;;;;;;;;5.10;99.90;;;;;;5034106;28;19955;-62
2023/03/09 05:58:42;;;;;;;;;;;5.30;99.90;;;;;;5029472;28;19917;-62
2023/03/09 06:01:21;;;;;;;;;;;5.10;99.90;;;;;;5041645;28;19913;-62
2023/03/09 06:03:48;;;;;;;;;;;5.10;99.90;;;;;;5031128;28;19922;-61
2023/03/09 06:06:14;;;;;;;;;;;5.20;99.90;;;;;;5037201;28;20043;-64
2023/03/09 06:08:40;;;;;;;;;;;5.10;99.90;;;;;;5031806;28;20434;-62
2023/03/09 06:11:06;;;;;;;;;;;5.10;99.90;;;;;;5030165;28;20035;-62
2023/03/09 06:13:32;;;;;;;;;;;5.30;99.90;;;;;;5025581;28;19952;-62
2023/03/09 06:15:57;;;;;;;;;;;5.20;99.90;;;;;;5031597;28;19982;-62
2023/03/09 06:18:23;;;;;;;;;;;5.20;99.90;;;;;;5029602;28;19935;-62
2023/03/09 06:20:49;;;;;;;;;;;5.40;99.90;;;;;;5027474;28;19913;-62
2023/03/09 06:23:14;;;;;;;;;;;5.20;99.90;;;;;;5030762;28;20360;-62
2023/03/09 06:25:40;;;;;;;;;;;5.40;99.90;;;;;;5029108;28;20030;-62
2023/03/09 06:28:06;;;;;;;;;;;5.40;99.90;;;;;;5031125;28;19913;-61
2023/03/09 06:30:31;;;;;;;;;;;5.40;99.90;;;;;;5029482;28;19913;-62
2023/03/09 06:32:57;;;;;;;;;;;5.40;99.90;;;;;;5031264;28;19996;-62
2023/03/09 06:35:23;;;;;;;;;;;5.30;99.90;;;;;;5027657;28;19928;-62
2023/03/09 06:37:49;;;;;;;;;;;5.50;99.90;;;;;;5031121;28;19983;-62
2023/03/09 06:40:14;;;;;;;;;;;5.40;99.90;;;;;;5030996;28;20377;-62
2023/03/09 06:42:40;;;;;;;;;;;5.30;99.90;;;;;;5028753;28;20374;-62
2023/03/09 06:45:06;;;;;;;;;;;5.60;99.90;;;;;;5030575;28;19928;-62
2023/03/09 06:47:32;;;;;;;;;;;5.40;99.90;;;;;;5028818;28;19913;-62
2023/03/09 06:49:57;;;;;;;;;;;5.40;99.90;;;;;;5030904;28;19959;-62
2023/03/09 06:52:24;;;;;;;;;;;5.40;99.90;;;;;;5030163;28;19913;-62
2023/03/09 06:54:50;;;;;;;;;;;5.60;99.90;;;;;;5030494;28;20324;-60
2023/03/09 06:57:16;;;;;;;;;;;5.60;99.90;;;;;;5029143;28;19913;-61
2023/03/09 06:59:41;;;;;;;;;;;5.40;99.90;;;;;;5026480;28;19925;-61
2023/03/09 07:02:09;;;;;;;;;;;5.60;99.90;;;;;;5028938;28;19917;-62
2023/03/09 07:04:35;;;;;;;;;;;5.60;99.90;;;;;;5029510;28;19929;-62
2023/03/09 07:07:00;;;;;;;;;;;5.70;99.90;;;;;;5032492;28;19913;-61
2023/03/09 07:09:26;;;;;;;;;;;5.50;99.90;;;;;;5031535;28;19920;-61
2023/03/09 07:11:51;;;;;;;;;;;5.60;99.90;;;;;;5029219;28;19921;-62
2023/03/09 07:14:17;;;;;;;;;;;5.80;99.90;;;;;;5030493;28;20008;-62
2023/03/09 07:16:42;;;;;;;;;;;5.50;99.90;;;;;;5028744;28;19913;-62
2023/03/09 07:19:08;;;;;;;;;;;5.70;99.90;;;;;;5030459;28;19917;-63
2023/03/09 07:21:34;;;;;;;;;;;5.60;99.90;;;;;;5028617;28;19921;-62
2023/03/09 07:23:59;;;;;;;;;;;5.60;99.90;;;;;;5029358;28;19921;-62
2023/03/09 07:26:25;;;;;;;;;;;5.70;99.90;;;;;;5027437;28;19913;-63
2023/03/09 07:28:51;;;;;;;;;;;5.80;99.90;;;;;;5030180;28;20379;-62
2023/03/09 07:31:16;;;;;;;;;;;5.90;99.90;;;;;;5029927;28;20446;-61
2023/03/09 07:33:42;;;;;;;;;;;6.10;99.90;;;;;;5026779;28;20350;-62
2023/03/09 07:36:08;;;;;;;;;;;6.00;99.90;;;;;;5030148;28;19966;-62
2023/03/09 07:38:34;;;;;;;;;;;6.10;99.90;;;;;;5027653;28;19913;-62
2023/03/09 07:41:00;;;;;;;;;;;6.20;99.90;;;;;;5029354;28;20384;-62
2023/03/09 07:43:26;;;;;;;;;;;6.10;99.90;;;;;;5026733;28;19983;-62
2023/03/09 07:45:51;;;;;;;;;;;6.20;99.90;;;;;;5028806;28;20389;-63
2023/03/09 07:48:17;;;;;;;;;;;6.20;99.90;;;;;;5028375;28;19917;-62
2023/03/09 07:50:43;;;;;;;;;;;6.10;99.90;;;;;;5028102;28;19913;-63
2023/03/09 07:53:09;;;;;;;;;;;6.00;99.90;;;;;;5029215;28;19917;-63
2023/03/09 07:55:35;;;;;;;;;;;6.20;99.90;;;;;;5027455;28;19920;-62
2023/03/09 07:58:01;;;;;;;;;;;6.20;99.90;;;;;;5029180;28;20280;-62
2023/03/09 08:00:28;;;;;;;;;;;6.40;99.90;;;;;;5026982;28;20360;-63
2023/03/09 08:02:53;;;;;;;;;;;6.20;99.90;;;;;;5029684;28;20336;-62
2023/03/09 08:05:19;;;;;;;;;;;6.30;99.90;;;;;;5029202;28;20515;-63
2023/03/09 08:07:46;;;;;;;;;;;6.50;99.90;;;;;;5028620;28;19920;-63
2023/03/09 08:10:13;;;;;;;;;;;6.30;99.90;;;;;;5028487;28;19913;-63
2023/03/09 08:12:39;;;;;;;;;;;6.40;99.90;;;;;;5026417;28;19917;-62
2023/03/09 08:15:05;;;;;;;;;;;6.50;99.90;;;;;;5028535;28;20332;-62
2023/03/09 08:17:31;;;;;;;;;;;6.40;99.90;;;;;;5026065;28;19920;-62
2023/03/09 08:19:56;;;;;;;;;;;6.60;99.90;;;;;;5029237;28;20296;-63
2023/03/09 08:22:22;;;;;;;;;;;6.70;99.90;;;;;;5027504;28;19912;-64
2023/03/09 08:24:47;;;;;;;;;;;6.80;99.90;;;;;;5028179;28;19940;-66
2023/03/09 08:27:13;;;;;;;;;;;6.70;99.90;;;;;;5036754;28;19912;-62
2023/03/09 08:29:39;;;;;;;;;;;6.80;99.90;;;;;;5033047;28;19928;-63
2023/03/09 08:32:05;;;;;;;;;;;6.70;99.90;;;;;;5025739;28;19928;-62
2023/03/09 08:34:31;;;;;;;;;;;6.90;99.90;;;;;;5026697;28;19913;-63
2023/03/09 08:36:57;;;;;;;;;;;6.80;99.90;;;;;;5028025;28;19920;-63
2023/03/09 08:39:22;;;;;;;;;;;6.90;99.90;;;;;;5027736;28;20300;-63
2023/03/09 08:41:48;;;;;;;;;;;6.80;99.90;;;;;;5027894;28;20344;-63
2023/03/09 08:44:13;;;;;;;;;;;6.90;99.90;;;;;;5025090;28;19983;-63
2023/03/09 08:46:39;;;;;;;;;;;6.90;99.90;;;;;;5030776;28;20424;-63
2023/03/09 08:49:05;;;;;;;;;;;7.10;99.90;;;;;;5028201;28;19928;-62
2023/03/09 08:51:30;;;;;;;;;;;7.20;99.90;;;;;;5027642;28;20063;-63
2023/03/09 08:53:56;;;;;;;;;;;7.00;99.90;;;;;;5028820;28;20430;-64
2023/03/09 08:56:21;;;;;;;;;;;7.20;99.90;;;;;;5027498;28;20286;-64
2023/03/09 08:58:47;;;;;;;;;;;7.20;99.90;;;;;;5033449;28;19913;-62
2023/03/09 09:01:12;;;;;;;;;;;7.00;99.90;;;;;;5028944;28;20048;-65
2023/03/09 09:03:38;;;;;;;;;;;7.00;99.90;;;;;;5027739;28;19929;-63
2023/03/09 09:06:05;;;;;;;;;;;7.00;99.90;;;;;;5029234;28;19920;-64
2023/03/09 09:08:30;;;;;;;;;;;7.30;99.90;;;;;;5029326;28;20478;-64
2023/03/09 09:10:59;;;;;;;;;;;7.20;99.90;;;;;;5030911;28;19917;-64
2023/03/09 09:13:24;;;;;;;;;;;7.20;99.90;;;;;;5023543;28;19920;-65
2023/03/09 09:15:54;;;;;;;;;;;7.20;99.90;;;;;;5034313;28;19913;-63
2023/03/09 09:18:19;;;;;;;;;;;7.30;99.90;;;;;;5030971;28;19917;-63
2023/03/09 09:20:45;;;;;;;;;;;7.50;99.90;;;;;;5027205;28;19923;-63
2023/03/09 09:23:11;;;;;;;;;;;7.60;99.90;;;;;;5029232;28;19914;-63
2023/03/09 09:25:36;;;;;;;;;;;7.60;99.90;;;;;;5027799;28;19913;-62
2023/03/09 09:28:02;;;;;;;;;;;7.70;99.90;;;;;;5030753;28;19924;-63
2023/03/09 09:30:29;;;;;;;;;;;7.60;99.90;;;;;;5030334;28;19921;-63
2023/03/09 09:32:55;;;;;;;;;;;7.50;99.90;;;;;;5029234;28;19957;-65
2023/03/09 09:35:21;;;;;;;;;;;7.70;99.90;;;;;;5030259;28;19960;-62
2023/03/09 09:37:46;;;;;;;;;;;7.60;99.90;;;;;;5029862;28;19917;-64
2023/03/09 09:40:13;;;;;;;;;;;7.60;99.90;;;;;;5032890;28;19943;-63
2023/03/09 09:42:39;;;;;;;;;;;7.50;99.90;;;;;;5024154;28;19948;-63
2023/03/09 09:45:13;;;;;;;;;;;7.90;99.90;;;;;;5029608;28;19939;-64
2023/03/09 09:47:39;;;;;;;;;;;7.90;99.90;;;;;;5032540;28;19927;-63
2023/03/09 09:50:05;;;;;;;;;;;8.10;99.90;;;;;;5027874;28;19917;-63
2023/03/09 09:52:37;;;;;;;;;;;9.10;99.90;;;;;;5028158;28;19920;-62
2023/03/09 09:55:06;;;;;;;;;;;9.70;99.90;;;;;;5032430;28;19913;-62
2023/03/09 09:57:39;;;;;;;;;;;10.00;99.90;;;;;;5025988;28;20280;-62
2023/03/09 10:00:07;;;;;;;;;;;10.40;99.90;;;;;;5032136;28;19970;-61
2023/03/09 10:02:36;;;;;;;;;;;10.40;99.90;;;;;;5024730;28;21289;-63
2023/03/09 10:05:10;;;;;;;;;;;10.40;99.90;;;;;;5023379;28;19925;-62
2023/03/09 10:07:36;;;;;;;;;;;10.50;99.90;;;;;;5027583;28;19913;-63
2023/03/09 10:10:04;;;;;;;;;;;10.70;99.90;;;;;;5030114;28;19917;-65
2023/03/09 10:12:30;;;;;;;;;;;10.90;99.90;;;;;;5026716;28;19964;-61
2023/03/09 10:15:09;;;;;;;;;;;10.80;99.90;;;;;;5031184;28;20367;-63
2023/03/09 10:17:40;;;;;;;;;;;11.10;99.90;;;;;;5026749;28;19966;-63
2023/03/09 10:20:25;;;;;;;;;;;10.90;99.90;;;;;;5024130;28;19922;-63
2023/03/09 10:22:52;;;;;;;;;;;11.00;99.90;;;;;;5028647;28;19963;-63
2023/03/09 10:25:19;;;;;;;;;;;11.00;99.90;;;;;;5030066;28;19929;-62
2023/03/09 10:28:08;;;;;;;;;;;11.00;99.90;;;;;;5025919;28;19932;-62
2023/03/09 10:30:51;;;;;;;;;;;11.20;99.90;;;;;;5013569;28;20349;-62
2023/03/09 10:33:22;;;;;;;;;;;11.00;99.90;;;;;;5031931;28;19917;-63
2023/03/09 10:35:48;;;;;;;;;;;11.20;99.90;;;;;;5029219;28;19920;-63
2023/03/09 10:41:17;;;;;;;;;;;11.10;99.90;;;;;;5022651;28;19919;-64
2023/03/09 10:43:43;;;;;;;;;;;11.00;99.90;;;;;;4519191;28;20440;-65
2023/03/09 10:46:09;;;;;;;;;;;10.90;99.90;;;;;;5029346;28;20293;-65
2023/03/09 10:48:35;;;;;;;;;;;10.90;99.90;;;;;;5033103;28;19912;-64
2023/03/09 10:51:04;;;;;;;;;;;10.80;99.90;;;;;;5027559;28;19917;-64
2023/03/09 10:53:31;;;;;;;;;;;10.80;99.90;;;;;;5029105;28;19920;-66
2023/03/09 10:56:07;;;;;;;;;;;11.20;99.90;;;;;;5029361;28;19912;-66
2023/03/09 10:58:33;;;;;;;;;;;11.30;99.90;;;;;;5024960;28;19913;-64
2023/03/09 11:01:17;;;;;;;;;;;11.40;99.90;;;;;;5029972;28;19963;-68
2023/03/09 11:03:43;;;;;;;;;;;11.30;99.90;;;;;;5026175;28;19983;-66
2023/03/09 11:06:18;;;;;;;;;;;11.50;99.90;;;;;;5027820;28;19917;-61
2023/03/09 11:08:53;;;;;;;;;;;11.90;99.90;;;;;;5033911;28;19913;-62
2023/03/09 11:11:20;;;;;;;;;;;12.00;99.90;;;;;;5029846;28;20235;-62
2023/03/09 11:13:47;;;;;;;;;;;12.20;99.90;;;;;;5025972;28;19975;-63
2023/03/09 11:16:29;;;;;;;;;;;12.20;99.90;;;;;;5030234;28;19913;-62
2023/03/09 11:19:05;;;;;;;;;;;12.30;99.90;;;;;;5028203;28;19967;-64
2023/03/09 11:21:31;;;;;;;;;;;12.30;99.90;;;;;;5027242;28;19913;-62
2023/03/09 11:24:00;;;;;;;;;;;12.30;99.90;;;;;;5029173;28;20341;-62
2023/03/09 11:26:28;;;;;;;;;;;12.60;99.90;;;;;;5022718;28;19920;-62
2023/03/09 11:29:06;;;;;;;;;;;12.70;99.90;;;;;;5027212;28;19917;-62
2023/03/09 11:31:35;;;;;;;;;;;12.80;99.90;;;;;;5033128;28;20416;-63
2023/03/09 11:34:01;;;;;;;;;;;12.60;99.90;;;;;;5028853;28;20368;-64
2023/03/09 11:36:31;;;;;;;;;;;12.60;99.90;;;;;;5024100;28;19963;-62
2023/03/09 11:39:00;;;;;;;;;;;12.70;99.90;;;;;;5028002;28;19957;-64
2023/03/09 11:41:28;;;;;;;;;;;13.00;99.90;;;;;;5026080;28;19923;-62
2023/03/09 11:43:56;;;;;;;;;;;13.10;99.90;;;;;;5025048;28;19925;-63
2023/03/09 11:46:23;;;;;;;;;;;13.00;99.90;;;;;;5026087;28;19913;-61
2023/03/09 11:49:08;;;;;;;;;;;12.70;99.90;;;;;;5027986;28;19913;-61
2023/03/09 11:51:39;;;;;;;;;;;12.40;99.90;;;;;;5023415;28;19953;-61
2023/03/09 11:54:18;;;;;;;;;;;12.40;99.90;;;;;;5032022;28;19917;-62
2023/03/09 11:56:44;;;;;;;;;;;12.50;99.90;;;;;;5023177;28;20344;-62
2023/03/09 11:59:14;;;;;;;;;;;12.40;99.90;;;;;;5028333;28;20007;-62
2023/03/09 12:01:45;;;;;;;;;;;12.50;99.90;;;;;;5025051;28;19921;-63
2023/03/09 12:04:13;;;;;;;;;;;12.40;99.90;;;;;;5029164;28;20379;-61
2023/03/09 12:06:45;;;;;;;;;;;12.50;99.90;;;;;;5025404;28;20256;-62
2023/03/09 12:09:19;;;;;;;;;;;12.30;99.90;;;;;;5027563;28;19913;-64
2023/03/09 12:11:50;;;;;;;;;;;12.20;99.90;;;;;;5023617;28;19920;-62
2023/03/09 12:14:15;;;;;;;;;;;12.20;99.90;;;;;;5029079;28;19920;-62
2023/03/09 12:16:42;;;;;;;;;;;12.10;99.90;;;;;;5025266;28;19921;-62
2023/03/09 12:19:10;;;;;;;;;;;12.00;99.90;;;;;;5027959;28;19921;-61
2023/03/09 12:21:37;;;;;;;;;;;12.00;99.90;;;;;;5024757;28;19917;-63
2023/03/09 12:24:22;;;;;;;;;;;12.00;99.90;;;;;;5028816;28;19928;-62
2023/03/09 12:26:56;;;;;;;;;;;11.90;99.90;;;;;;5024133;28;19913;-63
2023/03/09 12:29:23;;;;;;;;;;;11.70;99.90;;;;;;5023396;28;19921;-63
2023/03/09 12:32:07;;;;;;;;;;;11.70;99.90;;;;;;5032212;28;19919;-63
2023/03/09 12:34:39;;;;;;;;;;;11.60;99.90;;;;;;5020884;28;20254;-61
2023/03/09 12:37:38;;;;;;;;;;;11.50;99.90;;;;;;5027481;28;19913;-62
2023/03/09 12:43:14;;;;;;;;;;;11.30;99.90;;;;;;5023885;28;19971;-61
2023/03/09 12:54:55;;;;;;;;;;;10.90;99.90;;;;;;5021057;28;20324;-65
2023/03/09 12:57:20;;;;;;;;;;;10.80;99.90;;;;;;5023484;28;20399;-65
2023/03/09 12:59:48;;;;;;;;;;;10.70;99.90;;;;;;5021152;28;19935;-65
2023/03/09 13:02:25;;;;;;;;;;;10.70;99.90;;;;;;5024104;28;19913;-64
2023/03/09 13:05:20;;;;;;;;;;;10.60;99.90;;;;;;5024406;28;19928;-64
2023/03/09 13:07:51;;;;;;;;;;;10.70;99.90;;;;;;5018920;28;20373;-64
2023/03/09 13:10:19;;;;;;;;;;;10.60;99.90;;;;;;5026609;28;19913;-64
2023/03/09 13:12:44;;;;;;;;;;;10.60;99.90;;;;;;5014627;28;19967;-63
2023/03/09 13:15:21;;;;;;;;;;;10.50;99.90;;;;;;5026233;28;19917;-63
2023/03/09 13:18:09;;;;;;;;;;;10.60;99.90;;;;;;5023482;28;20436;-62
2023/03/09 13:20:37;;;;;;;;;;;10.60;99.90;;;;;;5016013;28;20349;-62
2023/03/09 13:23:05;;;;;;;;;;;10.70;99.90;;;;;;5030400;28;19967;-62
2023/03/09 13:25:50;;;;;;;;;;;10.70;99.90;;;;;;5028230;28;19944;-63
2023/03/09 13:28:19;;;;;;;;;;;10.70;99.90;;;;;;5024282;28;20008;-62
2023/03/09 13:30:45;;;;;;;;;;;10.80;99.90;;;;;;5027762;28;19920;-62
2023/03/09 13:33:16;;;;;;;;;;;10.70;99.90;;;;;;5030804;28;20385;-62
2023/03/09 13:35:47;;;;;;;;;;;10.70;99.90;;;;;;5028037;28;19913;-63
2023/03/09 13:38:24;;;;;;;;;;;10.70;99.90;;;;;;5030147;28;20300;-62
2023/03/09 13:40:57;;;;;;;;;;;10.60;99.90;;;;;;5029767;28;19921;-62
2023/03/09 13:43:34;;;;;;;;;;;10.50;99.90;;;;;;5024892;28;19921;-62
2023/03/09 13:46:02;;;;;;;;;;;10.60;99.90;;;;;;5027512;28;19924;-63
2023/03/09 13:48:28;;;;;;;;;;;10.60;99.90;;;;;;5028999;28;19920;-64
2023/03/09 13:50:53;;;;;;;;;;;10.50;99.90;;;;;;5030503;28;19913;-63
2023/03/09 13:53:23;;;;;;;;;;;10.40;99.90;;;;;;5029501;28;20063;-63
2023/03/09 13:55:57;;;;;;;;;;;10.50;99.90;;;;;;5029224;28;19921;-63
2023/03/09 13:58:24;;;;;;;;;;;10.50;99.90;;;;;;5019351;28;19995;-65
2023/03/09 14:00:57;;;;;;;;;;;10.60;99.90;;;;;;5028259;28;20011;-64
2023/03/09 14:03:23;;;;;;;;;;;10.60;99.90;;;;;;5027880;28;19917;-65
2023/03/09 14:05:53;;;;;;;;;;;10.60;99.90;;;;;;5029070;28;19917;-65
2023/03/09 14:08:20;;;;;;;;;;;10.60;99.90;;;;;;5024865;28;20067;-65
2023/03/09 14:10:46;;;;;;;;;;;10.70;99.90;;;;;;5026823;28;19963;-65
2023/03/09 14:13:15;;;;;;;;;;;10.70;99.90;;;;;;5024954;28;19917;-64
2023/03/09 14:15:46;;;;;;;;;;;10.80;99.90;;;;;;5028079;28;19995;-65
2023/03/09 14:18:23;;;;;;;;;;;10.90;99.90;;;;;;5032907;28;20043;-64
2023/03/09 14:20:49;;;;;;;;;;;11.00;99.90;;;;;;5029097;28;20434;-64
2023/03/09 14:23:32;;;;;;;;;;;10.90;99.90;;;;;;5033671;28;19996;-66
2023/03/09 14:25:58;;;;;;;;;;;10.90;99.90;;;;;;5027281;28;20011;-63
2023/03/09 14:28:28;;;;;;;;;;;11.10;99.90;;;;;;5023362;28;20075;-64
2023/03/09 14:30:53;;;;;;;;;;;11.10;99.90;;;;;;5028932;28;19917;-64
2023/03/09 14:33:29;;;;;;;;;;;11.10;99.90;;;;;;5027945;28;19924;-64
2023/03/09 14:36:14;;;;;;;;;;;11.10;99.90;;;;;;5027958;28;19927;-65
2023/03/09 14:38:50;;;;;;;;;;;11.00;99.90;;;;;;5025972;28;19917;-65
2023/03/09 14:41:18;;;;;;;;;;;11.00;99.90;;;;;;5027351;28;19913;-63
2023/03/09 14:43:44;;;;;;;;;;;11.10;99.90;;;;;;5017502;28;19973;-64
2023/03/09 14:46:17;;;;;;;;;;;11.40;99.90;;;;;;5025781;28;20027;-64